Time;durP1;ratioP1;P1;durP2;ratioP2;P2;SDS_P1;SDS_P2;PMS_P1;PMS_P2;Temp;Humidity;BMP_temperature;BMP_pressure;BME280_temperature;BME280_humidity;BME280_pressure;Samples;Min_cycle;Max_cycle;Signal;HPM_P1;HPM_P2
2022/05/28 00:02:15;;;;;;;2.47;1.05;;;17.70;48.50;;;;;;2546913;53;21003;-75
2022/05/28 00:04:45;;;;;;;2.22;0.90;;;17.70;48.50;;;;;;2340494;54;20968;-76
2022/05/28 00:07:12;;;;;;;1.98;0.77;;;17.70;48.60;;;;;;2398409;53;20929;-76
2022/05/28 00:09:38;;;;;;;2.67;1.00;;;17.70;48.60;;;;;;2337163;54;20936;-74
2022/05/28 00:12:07;;;;;;;2.20;0.98;;;17.70;48.70;;;;;;2341622;53;21774;-75
2022/05/28 00:14:33;;;;;;;2.17;0.98;;;17.70;48.80;;;;;;2338528;53;21819;-76
2022/05/28 00:17:02;;;;;;;2.00;0.82;;;17.70;48.80;;;;;;2347569;53;20947;-79
2022/05/28 00:19:29;;;;;;;1.70;0.77;;;17.70;48.90;;;;;;2372844;53;21584;-77
2022/05/28 00:21:55;;;;;;;1.83;0.80;;;17.70;48.90;;;;;;2342226;53;20968;-75
2022/05/28 00:24:21;;;;;;;1.90;0.80;;;17.70;49.00;;;;;;2348457;53;21442;-75
2022/05/28 00:26:48;;;;;;;1.17;0.60;;;17.70;49.00;;;;;;2346855;53;20920;-76
2022/05/28 00:29:14;;;;;;;1.80;0.75;;;17.70;49.00;;;;;;2403165;53;20948;-75
2022/05/28 00:31:42;;;;;;;2.10;0.70;;;17.70;49.00;;;;;;2324344;54;21130;-75
2022/05/28 00:34:08;;;;;;;1.48;0.70;;;17.70;49.10;;;;;;2338241;53;21061;-74
2022/05/28 00:36:38;;;;;;;1.95;0.82;;;17.70;49.10;;;;;;2460711;53;20931;-78
2022/05/28 00:39:04;;;;;;;1.90;0.85;;;17.70;49.20;;;;;;2339854;53;20999;-75
2022/05/28 00:41:32;;;;;;;2.42;0.90;;;17.70;49.20;;;;;;2334264;54;21407;-75
2022/05/28 00:44:03;;;;;;;1.45;0.70;;;17.70;49.20;;;;;;2346223;53;20911;-75
2022/05/28 00:46:30;;;;;;;3.97;0.88;;;17.80;49.40;;;;;;2340858;53;20983;-75
2022/05/28 00:48:57;;;;;;;1.90;0.85;;;17.70;49.20;;;;;;2340601;54;20980;-75
2022/05/28 00:51:36;;;;;;;2.45;0.90;;;17.70;49.30;;;;;;2344845;53;21503;-75
2022/05/28 00:54:03;;;;;;;1.92;0.88;;;17.70;49.60;;;;;;2352138;53;20919;-76
2022/05/28 00:56:30;;;;;;;1.42;0.73;;;17.70;49.50;;;;;;2346013;53;20975;-75
2022/05/28 00:58:56;;;;;;;1.90;0.80;;;17.70;49.40;;;;;;2342631;53;20987;-78
2022/05/28 01:01:25;;;;;;;1.80;0.80;;;17.70;49.40;;;;;;2510302;53;21107;-79
2022/05/28 01:04:39;;;;;;;2.25;0.95;;;17.70;49.40;;;;;;2342427;53;21003;-75
2022/05/28 01:08:50;;;;;;;2.42;0.95;;;17.70;50.00;;;;;;2462174;53;21107;-75
2022/05/28 01:11:42;;;;;;;1.55;0.80;;;17.70;50.00;;;;;;2448006;53;20955;-75
2022/05/28 01:14:31;;;;;;;3.40;1.10;;;17.70;49.90;;;;;;2346478;53;20943;-75
2022/05/28 01:17:00;;;;;;;2.22;0.95;;;17.70;50.20;;;;;;2434965;53;20936;-77
2022/05/28 01:21:30;;;;;;;2.22;0.90;;;17.70;49.70;;;;;;2386004;53;20944;-75
2022/05/28 01:25:49;;;;;;;1.90;0.82;;;17.70;50.00;;;;;;2340653;54;21476;-75
2022/05/28 01:28:17;;;;;;;2.42;0.90;;;17.70;50.00;;;;;;2340346;54;20936;-76
2022/05/28 01:30:44;;;;;;;2.00;0.80;;;17.60;49.60;;;;;;2340538;54;21027;-76
2022/05/28 01:33:16;;;;;;;2.53;1.00;;;17.60;49.70;;;;;;2344343;53;20964;-76
2022/05/28 01:35:42;;;;;;;1.67;0.68;;;17.60;49.90;;;;;;2342449;53;21524;-75
2022/05/28 01:38:09;;;;;;;1.90;0.82;;;17.60;49.80;;;;;;2338988;53;21583;-75
2022/05/28 01:40:35;;;;;;;2.25;0.85;;;17.60;49.90;;;;;;2340135;54;21098;-75
2022/05/28 01:43:05;;;;;;;2.83;1.10;;;17.60;50.00;;;;;;2340337;54;20976;-77
2022/05/28 01:45:31;;;;;;;1.85;0.88;;;17.60;50.10;;;;;;2372642;53;21554;-75
2022/05/28 01:48:01;;;;;;;2.37;0.95;;;17.60;50.10;;;;;;2343983;53;21420;-75
2022/05/28 01:50:28;;;;;;;1.83;0.85;;;17.60;50.20;;;;;;2402213;53;20995;-75
2022/05/28 01:52:54;;;;;;;2.50;0.93;;;17.60;50.10;;;;;;2340546;54;20976;-75
2022/05/28 01:55:21;;;;;;;2.78;1.15;;;17.60;50.10;;;;;;2340333;54;20963;-76
2022/05/28 01:57:48;;;;;;;2.53;1.00;;;17.60;50.20;;;;;;2345695;53;20951;-75
2022/05/28 02:00:16;;;;;;;1.87;0.90;;;17.70;50.30;;;;;;2351266;53;20935;-75
2022/05/28 02:02:45;;;;;;;2.17;0.90;;;17.60;50.20;;;;;;2356683;53;21946;-75
2022/05/28 02:05:11;;;;;;;2.40;1.00;;;17.60;50.20;;;;;;2548747;53;20956;-79
2022/05/28 02:07:37;;;;;;;2.42;1.08;;;17.60;50.20;;;;;;2344838;53;20955;-75
2022/05/28 02:10:12;;;;;;;2.08;1.05;;;17.60;50.30;;;;;;2409667;53;21015;-78
2022/05/28 02:16:17;;;;;;;1.65;0.75;;;17.60;50.30;;;;;;2344228;53;20944;-77
2022/05/28 02:18:56;;;;;;;1.90;0.60;;;17.60;50.30;;;;;;2471437;53;21030;-79
2022/05/28 02:21:34;;;;;;;1.37;0.65;;;17.60;49.90;;;;;;2357917;53;20946;-75
2022/05/28 02:24:28;;;;;;;1.98;0.80;;;17.50;50.00;;;;;;2340863;54;21003;-79
2022/05/28 02:26:57;;;;;;;1.08;0.65;;;17.50;50.10;;;;;;2340972;54;20984;-77
2022/05/28 02:29:23;;;;;;;2.12;0.93;;;17.50;49.90;;;;;;2586742;53;20924;-78
2022/05/28 02:31:49;;;;;;;2.33;0.93;;;17.40;49.90;;;;;;2339899;53;21384;-78
2022/05/28 02:34:18;;;;;;;2.00;1.00;;;17.40;50.00;;;;;;2362401;53;20947;-74
2022/05/28 02:36:45;;;;;;;2.00;0.93;;;17.40;50.00;;;;;;2340243;54;20949;-76
2022/05/28 02:39:12;;;;;;;2.05;1.00;;;17.40;50.10;;;;;;2380154;53;20975;-75
2022/05/28 02:41:38;;;;;;;2.75;1.15;;;17.30;50.00;;;;;;2341984;53;20948;-76
2022/05/28 02:44:05;;;;;;;3.08;1.58;;;17.30;50.10;;;;;;2340835;54;21004;-78
2022/05/28 02:46:35;;;;;;;2.85;1.33;;;17.30;50.20;;;;;;2551305;53;20952;-76
2022/05/28 02:49:01;;;;;;;2.30;1.30;;;17.30;50.40;;;;;;2383686;53;21067;-75
2022/05/28 02:51:28;;;;;;;2.72;1.30;;;17.30;50.40;;;;;;2415538;53;21066;-76
2022/05/28 02:53:54;;;;;;;2.53;1.20;;;17.30;50.50;;;;;;2342515;53;21020;-75
2022/05/28 02:56:21;;;;;;;3.47;1.05;;;17.20;50.50;;;;;;2340338;54;20976;-75
2022/05/28 02:58:47;;;;;;;2.90;1.30;;;17.30;50.70;;;;;;2340704;54;21047;-75
2022/05/28 03:01:27;;;;;;;2.90;1.10;;;17.20;50.60;;;;;;2340450;54;20892;-75
2022/05/28 03:03:54;;;;;;;2.35;1.20;;;17.20;50.90;;;;;;2450792;53;21000;-76
2022/05/28 03:06:20;;;;;;;3.33;1.37;;;17.20;50.60;;;;;;2345855;53;20923;-75
2022/05/28 03:08:46;;;;;;;2.45;1.10;;;17.20;50.70;;;;;;2387174;53;20948;-75
2022/05/28 03:11:13;;;;;;;2.40;1.10;;;17.20;50.60;;;;;;2340529;54;21019;-75
2022/05/28 03:13:40;;;;;;;3.22;1.40;;;17.20;50.60;;;;;;2394772;53;20998;-75
2022/05/28 03:16:06;;;;;;;3.15;1.20;;;17.20;50.60;;;;;;2343089;53;20968;-75
2022/05/28 03:18:32;;;;;;;2.40;1.23;;;17.20;50.70;;;;;;2341180;53;20920;-76
2022/05/28 03:20:58;;;;;;;2.95;1.30;;;17.20;50.70;;;;;;2343656;53;20948;-77
2022/05/28 03:23:25;;;;;;;3.25;1.10;;;17.20;50.70;;;;;;2509713;53;20964;-78
2022/05/28 03:25:51;;;;;;;2.20;1.00;;;17.20;50.70;;;;;;2350153;53;20955;-76
2022/05/28 03:28:18;;;;;;;4.25;1.30;;;17.20;50.60;;;;;;2344653;53;20904;-78
2022/05/28 03:30:45;;;;;;;2.95;1.17;;;17.20;50.40;;;;;;2584632;53;20923;-78
2022/05/28 03:33:12;;;;;;;1.98;0.90;;;17.20;50.30;;;;;;2341598;53;20936;-75
2022/05/28 03:35:41;;;;;;;2.50;1.08;;;17.20;50.20;;;;;;2355807;53;20915;-77
2022/05/28 03:38:09;;;;;;;2.37;0.90;;;17.10;50.10;;;;;;2350862;53;20932;-76
2022/05/28 03:40:35;;;;;;;4.10;1.15;;;17.10;50.10;;;;;;2371760;53;21075;-78
2022/05/28 03:43:01;;;;;;;2.65;1.12;;;17.10;50.00;;;;;;2378052;53;20940;-76
2022/05/28 03:45:28;;;;;;;3.25;1.00;;;17.00;50.00;;;;;;2408284;53;20945;-78
2022/05/28 03:47:54;;;;;;;5.05;0.90;;;17.00;49.90;;;;;;2345370;53;20921;-75
2022/05/28 03:50:20;;;;;;;3.22;1.00;;;16.90;49.80;;;;;;2347109;53;20940;-77
2022/05/28 03:52:47;;;;;;;3.80;1.08;;;16.90;49.70;;;;;;2359593;53;20963;-78
2022/05/28 03:55:13;;;;;;;3.15;1.08;;;16.80;49.70;;;;;;2348143;53;20932;-76
2022/05/28 03:57:39;;;;;;;2.80;1.00;;;16.80;49.70;;;;;;2337499;53;21407;-78
2022/05/28 04:00:06;;;;;;;4.65;1.60;;;16.70;49.60;;;;;;2345651;53;20974;-76
2022/05/28 04:02:33;;;;;;;4.25;1.05;;;16.70;49.50;;;;;;2340366;54;21074;-74
2022/05/28 04:04:59;;;;;;;4.55;1.00;;;16.60;49.40;;;;;;2340445;54;20995;-77
2022/05/28 04:07:25;;;;;;;2.67;0.93;;;16.50;49.30;;;;;;2340425;54;20979;-76
2022/05/28 04:09:52;;;;;;;2.92;0.90;;;16.50;49.30;;;;;;2340829;54;21767;-77
2022/05/28 04:12:18;;;;;;;2.90;0.98;;;16.50;49.30;;;;;;2340823;54;20999;-76
2022/05/28 04:14:44;;;;;;;4.75;1.37;;;16.40;49.20;;;;;;2340444;54;21432;-74
2022/05/28 04:17:11;;;;;;;3.80;0.93;;;16.40;49.30;;;;;;2340435;54;21104;-77
2022/05/28 04:19:38;;;;;;;3.53;1.20;;;16.30;49.20;;;;;;2341221;54;21658;-78
2022/05/28 04:22:08;;;;;;;3.65;0.80;;;16.20;49.30;;;;;;2363153;53;20920;-79
2022/05/28 04:24:35;;;;;;;2.62;1.00;;;16.20;49.30;;;;;;2410984;53;20932;-74
2022/05/28 04:27:02;;;;;;;2.70;0.80;;;16.10;49.20;;;;;;2340337;54;20939;-77
2022/05/28 04:29:28;;;;;;;2.00;0.65;;;16.10;49.20;;;;;;2340649;54;20964;-75
2022/05/28 04:31:56;;;;;;;3.42;0.90;;;16.00;49.10;;;;;;2397806;53;21008;-75
2022/05/28 04:34:22;;;;;;;4.65;0.90;;;16.00;49.10;;;;;;2340543;54;21788;-76
2022/05/28 04:36:49;;;;;;;3.92;1.00;;;15.90;49.00;;;;;;2341087;54;20994;-76
2022/05/28 04:39:15;;;;;;;4.22;0.90;;;15.90;49.00;;;;;;2340356;54;21115;-79
2022/05/28 04:41:41;;;;;;;2.10;0.70;;;15.80;48.90;;;;;;2350032;53;20940;-75
2022/05/28 04:44:08;;;;;;;3.62;0.90;;;15.80;48.90;;;;;;2340524;54;20967;-75
2022/05/28 04:46:34;;;;;;;2.90;1.05;;;15.70;48.70;;;;;;2412938;53;21369;-76
2022/05/28 04:49:01;;;;;;;3.55;0.88;;;15.70;48.80;;;;;;2417727;53;20943;-79
2022/05/28 04:51:30;;;;;;;3.55;0.88;;;15.70;48.90;;;;;;2422470;53;21016;-77
2022/05/28 04:53:57;;;;;;;6.32;1.12;;;15.60;48.80;;;;;;2347345;53;21514;-77
2022/05/28 04:56:23;;;;;;;2.83;0.75;;;15.60;48.80;;;;;;2342970;53;21012;-78
2022/05/28 04:58:56;;;;;;;4.07;1.10;;;15.50;48.70;;;;;;2325758;54;20936;-76
2022/05/28 05:01:22;;;;;;;;;;;15.50;48.80;;;;;;2345554;53;20972;-78
2022/05/28 05:03:51;;;;;;;2.97;0.80;;;15.50;48.80;;;;;;2444381;53;20370;-76
2022/05/28 05:06:18;;;;;;;3.33;0.77;;;15.50;48.70;;;;;;2340479;54;20924;-78
2022/05/28 05:08:48;;;;;;;3.15;1.00;;;15.40;48.60;;;;;;2343472;53;21003;-76
2022/05/28 05:11:14;;;;;;;6.25;1.15;;;15.40;48.70;;;;;;2342082;53;20995;-77
2022/05/28 05:13:40;;;;;;;4.43;1.00;;;15.40;48.70;;;;;;2345014;53;20923;-78
2022/05/28 05:16:11;;;;;;;2.83;0.98;;;15.40;48.80;;;;;;2368839;53;20967;-74
2022/05/28 05:18:38;;;;;;;5.95;1.05;;;15.40;48.80;;;;;;2340684;54;21103;-76
2022/05/28 05:21:04;;;;;;;6.07;1.37;;;15.40;48.80;;;;;;2345569;53;21023;-77
2022/05/28 05:23:32;;;;;;;5.72;1.33;;;15.30;48.70;;;;;;2341826;53;21750;-76
2022/05/28 05:25:59;;;;;;;5.87;1.20;;;15.30;48.70;;;;;;2347608;53;20948;-76
2022/05/28 05:28:28;;;;;;;3.12;0.82;;;15.30;48.70;;;;;;2364965;54;20984;-75
2022/05/28 05:30:54;;;;;;;3.20;0.95;;;15.30;48.70;;;;;;2341001;54;20955;-78
2022/05/28 05:33:20;;;;;;;4.85;1.00;;;15.40;48.80;;;;;;2356714;53;21055;-77
2022/05/28 05:35:48;;;;;;;6.20;1.00;;;15.40;48.80;;;;;;2339996;54;20992;-78
2022/05/28 05:38:14;;;;;;;4.53;1.00;;;15.40;48.80;;;;;;2365958;53;20970;-74
2022/05/28 05:40:40;;;;;;;4.20;0.80;;;15.40;48.80;;;;;;2346693;53;20919;-77
2022/05/28 05:43:07;;;;;;;4.78;1.30;;;15.40;48.80;;;;;;2480694;53;20906;-77
2022/05/28 05:45:34;;;;;;;4.28;1.02;;;15.40;48.70;;;;;;2426015;53;20918;-77
2022/05/28 05:48:01;;;;;;;6.75;1.48;;;15.50;48.80;;;;;;2340627;54;20968;-78
2022/05/28 05:50:27;;;;;;;3.35;1.10;;;15.50;48.80;;;;;;2350743;53;20952;-76
2022/05/28 05:52:53;;;;;;;4.78;1.02;;;15.50;48.90;;;;;;2343762;53;20932;-79
2022/05/28 05:55:20;;;;;;;4.82;1.00;;;15.60;49.00;;;;;;2343324;53;20944;-76
2022/05/28 05:57:46;;;;;;;4.15;1.00;;;15.60;49.00;;;;;;2387639;53;20923;-76
2022/05/28 06:00:14;;;;;;;3.12;0.88;;;15.60;49.00;;;;;;2367490;53;20944;-75
2022/05/28 06:02:40;;;;;;;6.12;1.30;;;15.70;49.00;;;;;;2529712;53;21251;-75
2022/05/28 06:05:07;;;;;;;3.00;1.00;;;15.70;49.00;;;;;;2345780;53;20996;-76
2022/05/28 06:07:36;;;;;;;3.47;1.17;;;15.80;49.00;;;;;;2345957;53;20968;-77
2022/05/28 06:10:06;;;;;;;5.57;1.23;;;15.80;49.00;;;;;;2468319;53;21008;-76
2022/05/28 06:12:32;;;;;;;5.87;0.98;;;15.90;49.00;;;;;;2344238;53;20903;-76
2022/05/28 06:14:58;;;;;;;3.45;1.00;;;15.90;49.00;;;;;;2403093;53;22496;-76
2022/05/28 06:17:25;;;;;;;4.05;1.00;;;16.00;49.00;;;;;;2530126;53;21470;-78
2022/05/28 06:19:52;;;;;;;3.53;1.08;;;16.00;48.90;;;;;;2402722;53;21433;-78
2022/05/28 06:22:18;;;;;;;5.45;1.27;;;16.10;48.80;;;;;;2340299;53;20924;-75
2022/05/28 06:24:44;;;;;;;7.30;1.27;;;16.10;48.70;;;;;;2340197;53;21089;-79
2022/05/28 06:27:13;;;;;;;3.08;1.08;;;16.20;48.70;;;;;;2583337;53;20987;-74
2022/05/28 06:29:39;;;;;;;6.25;1.35;;;16.20;48.60;;;;;;2386119;53;21563;-75
2022/05/28 06:32:06;;;;;;;3.10;0.85;;;16.30;48.60;;;;;;2338831;53;20975;-76
2022/05/28 06:34:34;;;;;;;3.75;0.90;;;16.30;48.40;;;;;;2339527;53;20927;-78
2022/05/28 06:37:01;;;;;;;7.37;1.30;;;16.40;48.50;;;;;;2487722;53;20944;-76
2022/05/28 06:39:27;;;;;;;5.32;1.12;;;16.40;48.30;;;;;;2350741;53;21007;-78
2022/05/28 06:41:53;;;;;;;2.75;0.75;;;16.40;48.10;;;;;;2344291;53;20890;-78
2022/05/28 06:44:20;;;;;;;4.90;1.30;;;16.50;48.10;;;;;;2341145;53;20945;-76
2022/05/28 06:46:46;;;;;;;3.72;0.82;;;16.50;48.00;;;;;;2344122;54;21511;-74
2022/05/28 06:49:12;;;;;;;3.67;0.90;;;16.60;47.90;;;;;;2340054;53;20995;-76
2022/05/28 06:51:39;;;;;;;2.67;0.77;;;16.60;47.70;;;;;;2341957;53;20941;-76
2022/05/28 06:54:06;;;;;;;5.85;1.33;;;16.70;47.50;;;;;;2340548;53;20956;-75
2022/05/28 06:56:32;;;;;;;3.20;0.75;;;16.70;47.40;;;;;;2346195;53;20951;-75
2022/05/28 06:58:59;;;;;;;4.32;0.90;;;16.70;47.30;;;;;;2341058;53;21711;-74
2022/05/28 07:01:28;;;;;;;4.43;1.15;;;16.80;47.30;;;;;;2345042;53;20975;-75
2022/05/28 07:03:57;;;;;;;3.58;0.73;;;16.80;47.10;;;;;;2378180;53;20964;-72
2022/05/28 07:06:27;;;;;;;4.25;1.05;;;16.80;47.00;;;;;;2340088;54;21007;-72
2022/05/28 07:08:53;;;;;;;3.12;0.90;;;16.90;46.90;;;;;;2381146;53;20944;-73
2022/05/28 07:11:20;;;;;;;3.12;0.95;;;16.90;46.80;;;;;;2340768;54;20952;-73
2022/05/28 07:13:46;;;;;;;4.57;1.00;;;16.90;46.80;;;;;;2339810;53;21670;-72
2022/05/28 07:16:12;;;;;;;4.05;0.90;;;17.00;46.80;;;;;;2347159;53;21072;-73
2022/05/28 07:18:39;;;;;;;2.25;0.73;;;17.10;46.80;;;;;;2340326;54;21003;-72
2022/05/28 07:21:06;;;;;;;5.20;1.00;;;17.10;46.70;;;;;;2340562;54;20980;-73
2022/05/28 07:23:33;;;;;;;4.50;1.10;;;17.10;46.60;;;;;;2348281;53;20936;-70
2022/05/28 07:26:13;;;;;;;4.22;0.80;;;17.20;46.50;;;;;;2586127;53;21016;-74
2022/05/28 07:28:41;;;;;;;3.40;0.65;;;17.20;46.40;;;;;;2339743;54;21011;-73
2022/05/28 07:31:10;;;;;;;5.45;1.25;;;17.30;46.60;;;;;;2409144;53;20928;-72
2022/05/28 07:33:38;;;;;;;3.15;0.60;;;17.40;46.70;;;;;;2350309;53;21223;-72
2022/05/28 07:36:06;;;;;;;4.97;0.60;;;17.40;46.60;;;;;;2341181;53;20968;-74
2022/05/28 07:38:35;;;;;;;4.05;0.77;;;17.50;46.50;;;;;;2339849;54;20948;-74
2022/05/28 07:41:06;;;;;;;3.90;1.02;;;17.60;46.40;;;;;;2404774;53;20932;-72
2022/05/28 07:43:33;;;;;;;3.35;1.08;;;17.60;46.00;;;;;;2339945;53;20980;-74
2022/05/28 07:45:59;;;;;;;2.22;0.62;;;17.60;45.90;;;;;;2340058;53;20960;-73
2022/05/28 07:48:25;;;;;;;4.78;1.25;;;17.70;45.90;;;;;;2354892;53;20944;-73
2022/05/28 07:50:52;;;;;;;2.90;0.80;;;17.70;45.70;;;;;;2324701;54;20976;-73
2022/05/28 07:53:18;;;;;;;2.58;0.70;;;17.80;45.40;;;;;;2343918;53;20931;-75
2022/05/28 07:55:45;;;;;;;4.22;0.88;;;17.80;45.20;;;;;;2580383;53;20948;-73
2022/05/28 07:58:16;;;;;;;2.72;0.60;;;17.80;45.10;;;;;;2345709;53;20959;-73
2022/05/28 08:00:43;;;;;;;2.37;0.62;;;17.90;45.10;;;;;;2340277;54;20936;-72
2022/05/28 08:03:10;;;;;;;2.95;0.80;;;17.90;45.10;;;;;;2339471;53;20980;-73
2022/05/28 08:05:36;;;;;;;1.90;0.60;;;18.00;45.30;;;;;;2469158;53;21883;-73
2022/05/28 08:08:06;;;;;;;2.35;0.70;;;18.00;45.40;;;;;;2346128;53;21870;-73
2022/05/28 08:10:32;;;;;;;4.78;0.60;;;18.10;45.60;;;;;;2345915;53;20976;-72
2022/05/28 08:13:09;;;;;;;2.95;0.60;;;18.20;45.60;;;;;;2339786;53;20948;-74
2022/05/28 08:15:36;;;;;;;1.87;0.60;;;18.20;45.60;;;;;;2339442;53;20940;-73
2022/05/28 08:18:02;;;;;;;2.10;0.45;;;18.30;45.40;;;;;;2340173;54;21456;-72
2022/05/28 08:23:15;;;;;;;2.50;0.73;;;18.50;45.00;;;;;;2346786;53;20927;-72
2022/05/28 08:25:41;;;;;;;2.17;0.57;;;18.50;44.70;;;;;;2340650;53;21000;-72
2022/05/28 08:28:11;;;;;;;1.33;0.50;;;18.60;44.50;;;;;;2588848;53;20939;-73
2022/05/28 08:30:38;;;;;;;1.67;0.50;;;18.60;44.20;;;;;;2349630;53;21439;-74
2022/05/28 08:33:05;;;;;;;3.47;0.70;;;18.70;44.20;;;;;;2347207;53;20948;-74
2022/05/28 08:35:31;;;;;;;2.90;0.47;;;18.70;44.10;;;;;;2557573;53;21544;-74
2022/05/28 08:38:02;;;;;;;2.75;0.60;;;18.80;44.00;;;;;;2424978;53;21027;-74
2022/05/28 08:40:29;;;;;;;4.43;0.80;;;18.80;43.70;;;;;;2339621;54;21000;-74
2022/05/28 08:42:58;;;;;;;2.20;0.60;;;18.90;43.90;;;;;;2348514;53;20911;-72
2022/05/28 08:45:27;;;;;;;2.45;0.47;;;18.90;43.60;;;;;;2345302;53;20895;-73
2022/05/28 08:47:55;;;;;;;3.37;0.70;;;19.00;43.40;;;;;;2375266;53;21021;-73
2022/05/28 08:50:21;;;;;;;2.55;0.70;;;19.00;43.40;;;;;;2340172;54;21055;-73
2022/05/28 08:53:35;;;;;;;2.22;0.45;;;19.00;43.30;;;;;;2340368;53;21016;-73
2022/05/28 08:56:01;;;;;;;1.80;0.40;;;19.10;43.10;;;;;;2353951;53;20923;-72
2022/05/28 08:58:31;;;;;;;1.27;0.40;;;19.20;43.20;;;;;;2345358;53;20987;-73
2022/05/28 09:01:19;;;;;;;1.10;0.40;;;19.20;43.10;;;;;;2341560;53;20932;-74
2022/05/28 09:03:57;;;;;;;2.22;0.50;;;19.30;42.90;;;;;;2340452;54;20936;-72
2022/05/28 09:06:58;;;;;;;2.12;0.50;;;19.40;42.70;;;;;;2350062;53;20899;-73
2022/05/28 09:09:40;;;;;;;2.55;0.52;;;19.40;42.40;;;;;;2421900;53;21667;-74
2022/05/28 09:12:14;;;;;;;1.83;0.50;;;19.40;42.60;;;;;;2387026;53;21792;-74
2022/05/28 09:14:40;;;;;;;1.92;0.50;;;19.50;42.10;;;;;;2343822;53;20957;-72
2022/05/28 09:17:24;;;;;;;2.87;0.60;;;19.50;42.10;;;;;;2345940;53;20987;-74
2022/05/28 09:19:51;;;;;;;1.45;0.40;;;19.60;41.90;;;;;;2412649;53;21988;-74
2022/05/28 09:22:18;;;;;;;1.20;0.40;;;19.60;41.90;;;;;;2339780;54;20932;-73
2022/05/28 09:24:45;;;;;;;4.15;0.60;;;19.60;41.80;;;;;;2391955;53;20927;-73
2022/05/28 09:27:36;;;;;;;1.50;0.32;;;19.70;41.70;;;;;;2491202;53;20952;-69
2022/05/28 09:31:52;;;;;;;1.60;0.30;;;19.70;41.40;;;;;;2532022;53;20919;-70
2022/05/28 09:34:55;;;;;;;1.33;0.30;;;19.80;41.50;;;;;;2424644;53;20944;-71
2022/05/28 09:37:27;;;;;;;2.08;0.40;;;19.90;41.30;;;;;;2344776;53;20932;-72
2022/05/28 09:44:27;;;;;;;2.03;0.50;;;19.90;41.60;;;;;;2350627;53;20931;-71
2022/05/28 09:50:28;;;;;;;1.35;0.30;;;20.20;41.60;;;;;;2395604;53;20988;-70
2022/05/28 09:56:52;;;;;;;2.62;0.50;;;20.40;41.70;;;;;;2345626;53;21569;-69
2022/05/28 10:00:06;;;;;;;1.58;0.40;;;20.50;41.00;;;;;;2345615;53;20943;-70
2022/05/28 10:05:55;;;;;;;1.58;0.50;;;20.70;40.60;;;;;;2325571;54;21024;-71
2022/05/28 10:08:29;;;;;;;2.90;0.37;;;20.70;40.90;;;;;;2339689;54;21019;-72
2022/05/28 10:10:59;;;;;;;1.75;0.32;;;20.80;40.80;;;;;;2340396;54;20952;-70
2022/05/28 10:13:25;;;;;;;2.28;0.70;;;20.80;40.90;;;;;;2435398;53;21035;-71
2022/05/28 10:15:56;;;;;;;3.20;0.68;;;20.90;40.70;;;;;;2342425;53;21092;-72
2022/05/28 10:18:31;;;;;;;1.40;0.40;;;21.00;40.30;;;;;;2340196;54;20972;-73
2022/05/28 10:21:16;;;;;;;1.50;0.40;;;21.00;40.30;;;;;;2339720;53;20988;-71
2022/05/28 10:24:00;;;;;;;1.05;0.35;;;21.10;39.80;;;;;;2344564;53;22114;-71
2022/05/28 10:26:55;;;;;;;2.20;0.40;;;21.20;39.50;;;;;;2341792;54;20987;-69
2022/05/28 10:29:40;;;;;;;2.03;0.40;;;21.30;39.20;;;;;;2324442;54;20956;-69
2022/05/28 10:33:41;;;;;;;2.08;0.40;;;21.30;39.30;;;;;;2585462;53;20993;-72
2022/05/28 10:36:13;;;;;;;2.55;0.40;;;21.40;38.90;;;;;;2354331;53;20943;-69
2022/05/28 10:38:39;;;;;;;2.15;0.40;;;21.40;39.30;;;;;;2342477;53;20944;-71
2022/05/28 10:41:22;;;;;;;1.33;0.30;;;21.50;39.40;;;;;;2340327;54;21511;-69
2022/05/28 10:43:49;;;;;;;3.90;0.68;;;21.50;39.00;;;;;;2566110;53;20903;-70
2022/05/28 10:51:17;;;;;;;2.17;0.50;;;21.50;39.30;;;;;;2553758;53;21997;-70
2022/05/28 10:55:46;;;;;;;1.65;0.37;;;21.60;38.70;;;;;;2340137;54;20969;-71
2022/05/28 10:59:08;;;;;;;3.22;0.32;;;21.70;38.90;;;;;;2340404;54;21338;-68
2022/05/28 11:01:45;;;;;;;1.02;0.30;;;21.70;38.10;;;;;;2340587;54;20917;-71
2022/05/28 11:05:53;;;;;;;1.17;0.32;;;21.70;38.30;;;;;;2382404;53;1346895;-71
2022/05/28 11:15:26;;;;;;;2.35;0.40;;;21.70;37.80;;;;;;2589132;53;20979;-68
2022/05/28 11:18:11;;;;;;;1.55;0.40;;;21.70;37.40;;;;;;2332394;54;21039;-70
2022/05/28 11:24:00;;;;;;;0.45;0.28;;;21.70;37.70;;;;;;2340860;54;20984;-69
2022/05/28 11:26:34;;;;;;;2.08;0.52;;;21.70;38.10;;;;;;2345996;53;20959;-73
2022/05/28 11:35:55;;;;;;;2.15;0.65;;;21.70;37.80;;;;;;2491531;53;21675;-68
2022/05/28 11:38:58;;;;;;;3.25;0.30;;;21.70;37.50;;;;;;2538963;53;20935;-69
2022/05/28 11:41:26;;;;;;;;;;;21.80;37.50;;;;;;2349462;53;20991;-70
2022/05/28 11:45:21;;;;;;;1.95;0.52;;;21.70;38.00;;;;;;2340645;54;20210;-67
2022/05/28 11:51:35;;;;;;;1.70;0.30;;;21.90;37.30;;;;;;2340620;54;21468;-70
2022/05/28 11:54:17;;;;;;;1.15;0.30;;;21.90;37.50;;;;;;2344035;54;20996;-71
2022/05/28 11:56:45;;;;;;;1.30;0.40;;;21.90;37.00;;;;;;2375675;53;20955;-69
2022/05/28 11:59:31;;;;;;;1.27;0.30;;;21.90;37.00;;;;;;2340587;53;21315;-69
2022/05/28 12:02:07;;;;;;;1.45;0.30;;;22.00;36.70;;;;;;2343528;53;21000;-70
2022/05/28 12:04:40;;;;;;;1.20;0.40;;;22.00;36.70;;;;;;2341638;53;20955;-71
2022/05/28 12:08:07;;;;;;;0.45;0.20;;;22.10;36.50;;;;;;2340797;54;21032;-71
2022/05/28 12:10:46;;;;;;;1.42;0.32;;;22.10;36.40;;;;;;2340274;54;20972;-68
2022/05/28 12:13:46;;;;;;;1.48;0.55;;;22.10;36.20;;;;;;2343375;54;20944;-68
2022/05/28 12:16:34;;;;;;;2.15;0.60;;;22.10;36.20;;;;;;2339463;54;21444;-70
2022/05/28 12:20:58;;;;;;;1.83;0.40;;;22.20;36.70;;;;;;2340540;54;20964;-68
2022/05/28 12:23:41;;;;;;;1.10;0.37;;;22.30;37.00;;;;;;2345825;53;20975;-70
2022/05/28 12:26:17;;;;;;;1.12;0.32;;;22.30;36.40;;;;;;2324306;54;20960;-70
2022/05/28 12:28:49;;;;;;;1.10;0.30;;;22.40;36.50;;;;;;2339014;54;21019;-72
2022/05/28 12:31:27;;;;;;;1.25;0.30;;;22.40;36.90;;;;;;2336652;54;20972;-69
2022/05/28 12:33:58;;;;;;;2.30;0.40;;;22.50;36.30;;;;;;2339057;54;20975;-72
2022/05/28 12:36:39;;;;;;;1.23;0.40;;;22.50;36.30;;;;;;2338733;54;20982;-73
2022/05/28 12:41:54;;;;;;;1.80;0.40;;;22.60;35.80;;;;;;2338864;53;20976;-68
2022/05/28 12:44:24;;;;;;;2.00;0.47;;;22.70;36.10;;;;;;2587044;53;20947;-68
2022/05/28 12:46:59;;;;;;;1.92;0.50;;;22.70;36.00;;;;;;2479369;53;20954;-69
2022/05/28 12:49:36;;;;;;;2.10;0.50;;;22.70;35.30;;;;;;2367584;53;20951;-72
2022/05/28 12:52:28;;;;;;;1.73;0.40;;;22.70;35.10;;;;;;2340336;54;21051;-70
2022/05/28 12:55:38;;;;;;;3.17;0.50;;;22.70;34.90;;;;;;2339497;54;20932;-71
2022/05/28 12:58:10;;;;;;;1.65;0.40;;;22.70;34.90;;;;;;2340334;54;20948;-69
2022/05/28 13:01:00;;;;;;;2.87;0.60;;;22.70;34.70;;;;;;2585261;53;20935;-69
2022/05/28 13:03:52;;;;;;;2.40;0.60;;;22.70;34.10;;;;;;2344543;53;21544;-69
2022/05/28 13:06:33;;;;;;;1.83;0.47;;;22.70;34.50;;;;;;2347972;53;21716;-70
2022/05/28 13:09:07;;;;;;;1.83;0.50;;;22.70;34.70;;;;;;2340467;54;21379;-69
2022/05/28 13:11:43;;;;;;;2.20;0.50;;;22.60;34.70;;;;;;2389901;53;21546;-71
2022/05/28 13:15:10;;;;;;;2.10;0.50;;;22.60;34.50;;;;;;2340902;54;20916;-70
2022/05/28 13:17:44;;;;;;;2.47;0.60;;;22.70;33.90;;;;;;2517427;53;21042;-68
2022/05/28 13:22:06;;;;;;;2.00;0.35;;;22.70;34.20;;;;;;2346773;53;21341;-69
2022/05/28 13:27:25;;;;;;;1.90;0.40;;;22.70;34.50;;;;;;2340751;54;20956;-70
2022/05/28 13:30:15;;;;;;;2.35;0.50;;;22.70;34.80;;;;;;2340509;54;21051;-69
2022/05/28 13:34:42;;;;;;;1.27;0.30;;;22.80;34.10;;;;;;2344864;53;21011;-70
2022/05/28 13:37:18;;;;;;;0.85;0.30;;;22.80;34.00;;;;;;2351704;53;21277;-69
2022/05/28 13:39:46;;;;;;;1.17;0.30;;;22.80;34.10;;;;;;2343441;53;21441;-69
2022/05/28 13:42:13;;;;;;;1.35;0.40;;;22.80;34.40;;;;;;2353872;53;20926;-69
2022/05/28 13:44:42;;;;;;;2.17;0.40;;;22.90;34.40;;;;;;2412581;53;20972;-71
2022/05/28 13:47:08;;;;;;;3.37;0.70;;;22.90;34.20;;;;;;2349487;53;21302;-69
2022/05/28 13:49:35;;;;;;;2.20;0.70;;;22.90;34.10;;;;;;2339412;53;21012;-69
2022/05/28 13:52:06;;;;;;;1.33;0.40;;;23.00;34.00;;;;;;2342152;53;20981;-70
2022/05/28 13:54:32;;;;;;;1.65;0.40;;;23.00;34.00;;;;;;2343150;53;21075;-68
2022/05/28 13:57:00;;;;;;;1.37;0.45;;;23.10;34.00;;;;;;2342268;53;20929;-71
2022/05/28 13:59:49;;;;;;;2.45;0.40;;;23.10;34.00;;;;;;2362663;53;20956;-69
2022/05/28 14:02:23;;;;;;;1.37;0.40;;;23.20;33.50;;;;;;2339098;54;20931;-69
2022/05/28 14:04:49;;;;;;;1.17;0.40;;;23.20;33.60;;;;;;2340314;54;20998;-72
2022/05/28 14:07:32;;;;;;;1.30;0.30;;;23.20;33.90;;;;;;2345982;53;20900;-71
2022/05/28 14:10:00;;;;;;;2.03;0.50;;;23.30;33.70;;;;;;2533480;53;21002;-71
2022/05/28 14:12:35;;;;;;;1.45;0.40;;;23.30;33.70;;;;;;2341869;53;20932;-71
2022/05/28 14:15:05;;;;;;;2.95;0.75;;;23.40;32.90;;;;;;2408567;53;21007;-69
2022/05/28 14:17:34;;;;;;;1.08;0.40;;;23.40;33.20;;;;;;2340234;54;20964;-69
2022/05/28 14:20:00;;;;;;;1.65;0.50;;;23.40;33.20;;;;;;2474003;53;20944;-70
2022/05/28 14:22:34;;;;;;;1.48;0.40;;;23.40;33.40;;;;;;2543826;53;20968;-70